Terminal Aerodrome Forecast
Issued by NWS

Home | Current Version | Previous Version | Text Only | Print | Product List | Glossary On
Versions: 1 2 3 4 5 6 7 8 9 10 11 12 13
000
FTUS45 KGJT 221136
TAFCNY
TAF
KCNY 221136Z 2212/2312 21013KT P6SM SCT140 BKN200
     FM221800 20017G30KT P6SM SCT080 BKN200
     FM230000 23015G26KT P6SM FEW120 SCT200
     FM230200 27008KT P6SM SCT110 BKN200
     FM230500 26004KT P6SM FEW100 SCT140=

USA.gov is the U.S. government's official web portal to all federal, state and local government web resources and services.